North Creek, New York
Current Conditions -  °F | °C
As of 8:53 PM on Monday 20 Oct 2014 (Local Time) from KGFL Reporting Station
Broken Clouds Broken Clouds  
Wind Chill: 49°   Ceiling: 8000
Heat Index: 49°   Visibility: 10mi
Dew Point: 36°   Wind: 0mph
Humidity: 61%   Direction: NA
Pressure: 29.94"   Gusts: NA
Location:  43.7°N, 73.98°W
Report Text: KGFL 210053Z AUTO 00000KT 10SM BKN080 BKN120 09/02 A2994 RMK AO2 SLP143 T00940022
Loading
Personal Weather Stations






























Interactive Weather Map
Tropical Storm Tracking
New forecast layout! Learn more

10-Day Weather Forecast

Advertisements
Track Severe Weather on mobile